Time;durP1;ratioP1;P1;durP2;ratioP2;P2;SDS_P1;SDS_P2;PMS_P1;PMS_P2;Temp;Humidity;BMP_temperature;BMP_pressure;BME280_temperature;BME280_humidity;BME280_pressure;Samples;Min_cycle;Max_cycle;Signal;HPM_P1;HPM_P2
2021/04/03 00:01:07;;;;;;;3.62;1.65;;;;;;;9.57;72.15;97115.66;1636484;87;21203;-64
2021/04/03 00:03:35;;;;;;;4.60;1.90;;;;;;;9.57;72.58;97112.26;1636822;87;21246;-64
2021/04/03 00:06:06;;;;;;;2.40;1.57;;;;;;;9.55;72.55;97113.70;1636686;87;21607;-61
2021/04/03 00:08:34;;;;;;;2.30;1.35;;;;;;;9.53;72.39;97103.48;1636808;87;21186;-63
2021/04/03 00:11:06;;;;;;;3.98;1.80;;;;;;;9.51;72.51;97104.61;1636679;87;21199;-62
2021/04/03 00:13:42;;;;;;;2.85;1.90;;;;;;;9.47;72.79;97105.41;1631444;87;21208;-63
2021/04/03 00:16:10;;;;;;;2.42;1.60;;;;;;;9.45;72.72;97100.07;1628296;88;21711;-62
2021/04/03 00:18:39;;;;;;;2.60;1.55;;;;;;;9.28;72.55;97077.64;1628158;88;21187;-63
2021/04/03 00:21:07;;;;;;;3.02;1.57;;;;;;;9.41;72.63;97096.16;1628230;88;21243;-64
2021/04/03 00:23:35;;;;;;;1.98;1.45;;;;;;;9.39;72.19;97097.60;1606778;88;21180;-63
2021/04/03 00:26:04;;;;;;;2.85;1.90;;;;;;;9.37;71.98;97090.97;1602565;88;21608;-63
2021/04/03 00:28:32;;;;;;;2.10;1.40;;;;;;;9.34;71.82;97089.48;1628210;88;21739;-63
2021/04/03 00:31:00;;;;;;;3.90;1.57;;;;;;;9.31;71.89;97082.02;1628240;88;21349;-63
2021/04/03 00:33:28;;;;;;;2.62;1.67;;;;;;;9.27;72.10;97076.01;1628398;88;21175;-63
2021/04/03 00:35:57;;;;;;;2.10;1.35;;;;;;;9.23;72.10;97074.70;1628468;88;21145;-63
2021/04/03 00:38:25;;;;;;;2.37;1.52;;;;;;;9.18;72.13;97070.00;1628141;88;21172;-62
2021/04/03 00:40:53;;;;;;;2.95;0.95;;;;;;;9.12;72.31;97075.80;1628166;88;21200;-62
2021/04/03 00:43:24;;;;;;;2.10;1.42;;;;;;;9.08;72.04;97074.95;1628347;88;21688;-64
2021/04/03 00:45:52;;;;;;;3.02;1.65;;;;;;;9.03;72.55;97075.41;1628321;88;21183;-62
2021/04/03 00:48:21;;;;;;;2.20;1.45;;;;;;;9.00;71.95;97073.14;1628242;88;21203;-62
2021/04/03 00:50:52;;;;;;;1.80;1.22;;;;;;;8.95;72.37;97068.42;1628423;88;21167;-62
2021/04/03 00:53:28;;;;;;;3.55;1.90;;;;;;;8.91;72.44;97070.20;1628156;88;21322;-62
2021/04/03 00:56:03;;;;;;;2.72;1.72;;;;;;;8.86;73.15;97069.84;1627016;88;21351;-63
2021/04/03 00:58:31;;;;;;;3.12;1.72;;;;;;;8.82;72.80;97068.52;1628159;88;21353;-63
2021/04/03 01:01:02;;;;;;;3.35;1.82;;;;;;;8.76;73.41;97066.53;1602448;88;21625;-63
2021/04/03 01:03:32;;;;;;;1.72;0.93;;;;;;;8.72;73.33;97068.61;1602452;88;21171;-63
2021/04/03 01:06:02;;;;;;;1.52;1.00;;;;;;;8.70;73.75;97067.97;1628068;88;21216;-62
2021/04/03 01:08:32;;;;;;;1.05;0.85;;;;;;;8.68;73.50;97066.47;1628320;88;21140;-62
2021/04/03 01:11:02;;;;;;;2.42;1.47;;;;;;;8.67;74.00;97055.34;1628127;88;21326;-62
2021/04/03 01:14:03;;;;;;;1.92;1.12;;;;;;;8.65;73.97;97055.95;1628103;87;21378;-63
2021/04/03 01:16:49;;;;;;;2.98;1.47;;;;;;;8.66;74.26;97047.71;1628235;88;21823;-63
2021/04/03 01:19:36;;;;;;;4.72;1.10;;;;;;;8.67;74.44;97050.64;1628026;88;21164;-62
2021/04/03 01:22:29;;;;;;;2.75;1.67;;;;;;;8.63;75.30;97049.32;1628502;88;21742;-62
2021/04/03 01:25:32;;;;;;;2.05;1.30;;;;;;;8.62;74.77;97044.63;1628503;88;21188;-62
2021/04/03 01:28:18;;;;;;;1.32;1.10;;;;;;;8.58;76.11;97047.19;1628398;88;21624;-63
2021/04/03 01:30:49;;;;;;;2.75;1.30;;;;;;;8.51;76.70;97043.11;1593588;88;21148;-62
2021/04/03 01:33:22;;;;;;;2.00;1.00;;;;;;;8.48;76.17;97043.90;1628490;88;21333;-63
2021/04/03 01:36:14;;;;;;;4.28;1.30;;;;;;;8.44;76.64;97039.98;1628529;88;21179;-64
2021/04/03 01:38:54;;;;;;;1.87;1.57;;;;;;;8.41;77.03;97036.38;1628095;88;21371;-65
2021/04/03 01:41:26;;;;;;;3.15;1.77;;;;;;;8.42;76.42;97039.31;1602552;88;21207;-63
2021/04/03 01:43:56;;;;;;;3.80;1.20;;;;;;;8.43;76.41;97040.47;1628428;88;21180;-64
2021/04/03 01:46:30;;;;;;;2.67;1.47;;;;;;;8.42;76.45;97040.60;1628139;88;21184;-63
2021/04/03 01:49:03;;;;;;;3.12;1.62;;;;;;;8.39;77.11;97032.67;1628270;88;21309;-62
2021/04/03 01:51:33;;;;;;;2.37;1.70;;;;;;;8.34;77.15;97037.95;1628211;88;21322;-65
2021/04/03 01:54:05;;;;;;;2.37;1.85;;;;;;;8.29;78.21;97036.30;1628030;88;21326;-64
2021/04/03 01:56:34;;;;;;;3.35;1.50;;;;;;;8.25;77.77;97028.00;1628191;88;21726;-63
2021/04/03 01:59:08;;;;;;;3.40;1.62;;;;;;;8.19;77.90;97022.63;1606757;88;22211;-64
2021/04/03 02:01:43;;;;;;;1.70;1.12;;;;;;;8.15;77.82;97024.70;1628284;88;21236;-63
2021/04/03 02:04:35;;;;;;;2.40;1.62;;;;;;;8.17;77.62;97025.86;1628299;88;21187;-64
2021/04/03 02:07:05;;;;;;;2.60;1.35;;;;;;;8.19;76.89;97023.91;1630845;87;21671;-62
2021/04/03 02:09:40;;;;;;;2.20;1.20;;;;;;;8.23;76.39;97020.07;1639678;87;21203;-61
2021/04/03 02:12:15;;;;;;;2.37;1.77;;;;;;;8.23;76.25;97018.78;1629198;88;21664;-62
2021/04/03 02:14:51;;;;;;;2.55;1.42;;;;;;;8.21;76.40;97017.62;1639224;86;21206;-61
2021/04/03 02:17:22;;;;;;;3.90;1.72;;;;;;;8.19;76.19;97011.80;1649030;87;21591;-67
2021/04/03 02:19:52;;;;;;;2.50;1.70;;;;;;;8.13;76.18;97006.73;1649007;86;21627;-64
2021/04/03 02:22:23;;;;;;;2.52;1.10;;;;;;;8.04;76.22;97012.02;1649073;86;21214;-62
2021/04/03 02:24:56;;;;;;;3.95;1.35;;;;;;;7.97;76.24;97008.41;1647845;86;21210;-64
2021/04/03 02:27:28;;;;;;;8.45;1.45;;;;;;;7.90;76.02;97004.30;1649371;87;21629;-65
2021/04/03 02:29:57;;;;;;;1.72;1.37;;;;;;;7.88;75.22;97017.86;1649008;85;21186;-64
2021/04/03 02:32:25;;;;;;;1.37;1.02;;;;;;;7.85;75.37;97018.64;1649314;87;21218;-63
2021/04/03 02:34:53;;;;;;;1.90;1.07;;;;;;;7.82;74.98;97016.36;1649080;86;21232;-62
2021/04/03 02:37:23;;;;;;;1.70;1.05;;;;;;;7.78;74.94;97017.62;1627943;87;21186;-64
2021/04/03 02:39:52;;;;;;;3.15;1.55;;;;;;;7.74;75.08;97028.73;1648935;86;21221;-63
2021/04/03 02:42:24;;;;;;;2.65;1.42;;;;;;;7.71;74.78;97032.06;1649137;87;21205;-62
2021/04/03 02:44:57;;;;;;;2.00;1.60;;;;;;;7.64;74.95;97032.67;1648981;85;21178;-63
2021/04/03 02:47:46;;;;;;;3.60;2.27;;;;;;;7.57;74.53;97026.47;1648987;86;21610;-64
2021/04/03 02:50:36;;;;;;;1.17;0.88;;;;;;;7.47;74.53;97022.33;1649082;86;21206;-62
2021/04/03 02:53:11;;;;;;;1.50;1.17;;;;;;;7.39;74.03;97023.53;1649282;86;21186;-63
2021/04/03 02:55:46;;;;;;;1.75;1.55;;;;;;;7.29;74.67;97024.06;1648993;87;21638;-61
2021/04/03 02:58:22;;;;;;;2.35;1.27;;;;;;;7.12;75.78;97034.20;1648977;86;21209;-62
2021/04/03 03:00:56;;;;;;;2.17;1.40;;;;;;;7.02;75.34;97037.31;1649113;86;21595;-62
2021/04/03 03:03:27;;;;;;;3.45;1.72;;;;;;;6.98;76.18;97033.39;1648947;86;21619;-62
2021/04/03 03:05:59;;;;;;;2.27;1.50;;;;;;;6.92;75.73;97026.23;1643417;85;21151;-62
2021/04/03 03:08:36;;;;;;;2.95;1.85;;;;;;;6.85;76.25;97023.86;1637221;86;21230;-61
2021/04/03 03:11:05;;;;;;;3.42;1.82;;;;;;;6.79;75.93;97016.70;1637230;86;21186;-61
2021/04/03 03:13:36;;;;;;;2.37;1.80;;;;;;;6.74;75.78;97010.33;1637033;86;21211;-64
2021/04/03 03:16:07;;;;;;;4.03;1.80;;;;;;;6.66;77.75;97013.62;1637081;86;21755;-65
2021/04/03 03:18:40;;;;;;;4.50;2.47;;;;;;;6.59;78.30;97012.56;1636838;86;21159;-62
2021/04/03 03:21:10;;;;;;;4.12;1.95;;;;;;;6.56;77.49;97015.43;1636937;86;21592;-62
2021/04/03 03:23:40;;;;;;;2.00;1.77;;;;;;;6.53;76.48;97011.38;1636999;88;21317;-61
2021/04/03 03:26:08;;;;;;;3.95;2.30;;;;;;;6.51;76.16;97014.55;1636804;88;21779;-64
2021/04/03 03:28:39;;;;;;;2.92;1.72;;;;;;;6.50;76.15;97017.27;1636678;87;21756;-62
2021/04/03 03:31:08;;;;;;;2.10;1.75;;;;;;;6.46;76.45;97016.73;1636792;86;21726;-62
2021/04/03 03:33:36;;;;;;;3.05;1.70;;;;;;;6.44;77.32;97026.39;1636305;88;21222;-62
2021/04/03 03:36:10;;;;;;;3.58;1.92;;;;;;;6.45;76.31;97031.08;1636709;87;21194;-62
2021/04/03 03:38:42;;;;;;;3.33;1.70;;;;;;;6.46;76.31;97026.27;1637233;87;21236;-62
2021/04/03 03:41:13;;;;;;;3.15;1.65;;;;;;;6.46;76.85;97020.60;1636751;88;21588;-62
2021/04/03 03:43:42;;;;;;;1.87;1.42;;;;;;;6.47;76.61;97014.50;1636736;86;21670;-62
2021/04/03 03:46:10;;;;;;;3.17;1.90;;;;;;;6.47;76.67;97017.55;1613604;88;21254;-62
2021/04/03 03:48:39;;;;;;;3.22;1.57;;;;;;;6.46;77.35;97010.28;1636914;86;21599;-63
2021/04/03 03:51:09;;;;;;;3.95;2.25;;;;;;;6.47;76.44;97012.39;1636704;86;21183;-62
2021/04/03 03:53:39;;;;;;;3.00;1.70;;;;;;;6.48;76.64;97007.11;1636179;86;21190;-67
2021/04/03 03:56:08;;;;;;;2.37;1.40;;;;;;;6.49;76.17;96996.31;1636936;86;21317;-63
2021/04/03 03:58:37;;;;;;;2.75;1.65;;;;;;;6.49;75.65;96998.42;1613708;88;21195;-65
2021/04/03 04:01:06;;;;;;;3.25;1.57;;;;;;;6.51;75.79;96999.55;1636745;86;21163;-62
2021/04/03 04:03:35;;;;;;;3.22;1.65;;;;;;;6.50;76.11;97000.50;1637027;87;21186;-63
2021/04/03 04:06:06;;;;;;;2.60;1.20;;;;;;;6.49;75.62;96998.89;1636486;87;21651;-63
2021/04/03 04:08:35;;;;;;;3.35;1.95;;;;;;;6.49;75.45;96995.03;1636693;86;21184;-62
2021/04/03 04:11:05;;;;;;;2.47;1.52;;;;;;;6.47;75.28;96990.00;1636289;86;21576;-64
2021/04/03 04:13:33;;;;;;;2.52;1.60;;;;;;;6.47;75.20;96991.76;1636964;86;21234;-63
2021/04/03 04:16:04;;;;;;;3.12;1.60;;;;;;;6.44;75.79;96982.55;1636790;88;21199;-63
2021/04/03 04:18:33;;;;;;;5.53;1.87;;;;;;;6.42;75.41;96986.23;1636902;86;21159;-63
2021/04/03 04:21:03;;;;;;;3.05;1.90;;;;;;;6.40;75.80;96988.13;1636969;87;21368;-64
2021/04/03 04:23:32;;;;;;;3.33;1.90;;;;;;;6.37;75.71;96990.52;1637001;88;21618;-65
2021/04/03 04:26:03;;;;;;;5.12;2.00;;;;;;;6.35;75.48;96989.83;1636870;87;21190;-64
2021/04/03 04:28:34;;;;;;;4.90;2.50;;;;;;;6.34;75.60;96998.51;1636663;88;21187;-65
2021/04/03 04:31:02;;;;;;;1.52;1.42;;;;;;;6.32;75.74;96998.32;1636836;88;21718;-65
2021/04/03 04:33:32;;;;;;;2.15;1.55;;;;;;;6.30;75.70;97001.05;1636524;86;21182;-62
2021/04/03 04:36:01;;;;;;;3.52;1.60;;;;;;;6.29;75.67;97002.00;1636934;87;21556;-65
2021/04/03 04:38:31;;;;;;;3.95;2.20;;;;;;;6.28;75.24;96996.50;1636676;86;21160;-62
2021/04/03 04:41:00;;;;;;;3.47;1.52;;;;;;;6.27;75.75;96998.73;1636977;87;21211;-63
2021/04/03 04:43:29;;;;;;;2.47;1.55;;;;;;;6.26;75.37;96991.97;1636849;86;21392;-63
2021/04/03 04:46:00;;;;;;;4.33;2.27;;;;;;;6.27;74.93;96999.20;1636832;88;21313;-62
2021/04/03 04:48:29;;;;;;;3.25;2.00;;;;;;;6.27;75.12;97001.31;1636151;88;21155;-63
2021/04/03 04:50:59;;;;;;;5.12;2.95;;;;;;;6.26;75.95;96992.45;1636331;88;21226;-65
2021/04/03 04:53:28;;;;;;;6.20;2.42;;;;;;;6.24;76.32;96990.47;1636892;86;21220;-65
2021/04/03 04:55:57;;;;;;;4.95;2.10;;;;;;;6.21;76.86;96992.86;1636759;88;21757;-63
2021/04/03 04:58:25;;;;;;;5.20;2.60;;;;;;;6.23;76.80;97001.72;1636843;86;21162;-62
2021/04/03 05:00:56;;;;;;;3.30;2.08;;;;;;;6.26;76.17;97000.18;1636890;86;21328;-62
2021/04/03 05:03:35;;;;;;;4.10;2.47;;;;;;;6.31;75.91;97004.42;1636161;86;21187;-63
2021/04/03 05:06:04;;;;;;;3.27;2.10;;;;;;;6.36;76.26;97011.27;1638748;87;21193;-63
2021/04/03 05:08:32;;;;;;;3.83;2.40;;;;;;;6.41;75.93;97008.63;1646467;87;21230;-64
2021/04/03 05:11:00;;;;;;;3.05;2.10;;;;;;;6.47;76.62;97015.79;1646341;87;21183;-64
2021/04/03 05:13:28;;;;;;;2.42;1.60;;;;;;;6.57;75.85;97022.22;1646670;87;21198;-64
2021/04/03 05:15:57;;;;;;;2.12;1.62;;;;;;;6.67;75.77;97023.81;1646268;86;21270;-63
2021/04/03 05:18:26;;;;;;;4.50;1.47;;;;;;;6.77;75.06;97035.37;1646391;86;21155;-63
2021/04/03 05:20:54;;;;;;;2.22;1.75;;;;;;;6.86;74.31;97034.53;1646388;87;21253;-63
2021/04/03 05:23:22;;;;;;;3.55;2.08;;;;;;;6.94;74.07;97036.39;1646445;86;21621;-64
2021/04/03 05:25:51;;;;;;;3.58;1.65;;;;;;;6.98;74.42;97035.97;1646380;86;21233;-65
2021/04/03 05:28:19;;;;;;;2.85;1.77;;;;;;;7.00;74.47;97039.21;1646253;86;21182;-65
2021/04/03 05:30:47;;;;;;;2.77;1.72;;;;;;;7.06;74.35;97048.17;1646513;87;21678;-65
2021/04/03 05:33:15;;;;;;;1.90;1.00;;;;;;;7.08;74.74;97052.72;1646555;86;21162;-64
2021/04/03 05:35:43;;;;;;;1.60;1.07;;;;;;;7.16;73.98;97048.92;1646479;87;21292;-62
2021/04/03 05:38:11;;;;;;;2.05;0.98;;;;;;;7.25;73.47;97049.83;1646393;86;21182;-64
2021/04/03 05:40:48;;;;;;;2.40;1.52;;;;;;;7.35;73.33;97048.03;1741832;81;21271;-64
2021/04/03 05:43:19;;;;;;;2.98;1.42;;;;;;;7.45;73.49;97046.19;1746667;81;21712;-64
2021/04/03 05:45:52;;;;;;;3.55;1.75;;;;;;;7.57;73.60;97045.84;1746460;81;21566;-64
2021/04/03 05:48:22;;;;;;;3.15;1.95;;;;;;;7.67;73.35;97044.47;1746743;81;21157;-64
2021/04/03 05:50:55;;;;;;;3.83;2.52;;;;;;;7.75;73.25;97041.15;1746568;82;21161;-65
2021/04/03 05:53:23;;;;;;;3.10;1.98;;;;;;;7.84;73.00;97043.67;1746548;82;21598;-64
2021/04/03 05:55:56;;;;;;;3.72;1.67;;;;;;;7.92;73.00;97041.16;1746421;81;21166;-64
2021/04/03 05:58:25;;;;;;;2.62;1.47;;;;;;;7.98;72.76;97040.56;1746581;81;21150;-63
2021/04/03 06:00:55;;;;;;;2.72;1.75;;;;;;;8.07;72.67;97043.55;1746390;81;21209;-64
2021/04/03 06:03:24;;;;;;;3.05;2.27;;;;;;;8.16;72.66;97042.33;1746549;81;21256;-63
2021/04/03 06:05:53;;;;;;;2.72;1.75;;;;;;;8.19;71.89;97042.02;1746660;82;21291;-63
2021/04/03 06:08:21;;;;;;;2.17;1.40;;;;;;;8.22;72.16;97039.94;1746420;82;21165;-64
2021/04/03 06:11:14;;;;;;;2.50;1.77;;;;;;;8.31;72.19;97033.09;1746505;81;21165;-64
2021/04/03 06:13:59;;;;;;;3.77;1.60;;;;;;;8.46;72.09;97036.27;1746350;81;21174;-64
2021/04/03 06:16:32;;;;;;;2.67;1.77;;;;;;;8.54;71.12;97038.91;1746243;81;21146;-64
2021/04/03 06:19:14;;;;;;;2.55;1.57;;;;;;;8.54;70.91;97036.80;1746655;81;21142;-64
2021/04/03 06:22:00;;;;;;;2.45;1.90;;;;;;;8.65;71.16;97033.14;1746445;82;21126;-64
2021/04/03 06:24:39;;;;;;;3.85;2.00;;;;;;;8.78;70.90;97038.72;1746444;82;22087;-63
2021/04/03 06:27:17;;;;;;;3.70;2.00;;;;;;;8.86;70.61;97038.77;1746608;81;21562;-65
2021/04/03 06:29:50;;;;;;;4.85;2.02;;;;;;;8.92;70.31;97029.08;1744557;81;21154;-64
2021/04/03 06:32:30;;;;;;;5.53;2.35;;;;;;;8.92;69.19;97032.48;1746575;81;21700;-65
2021/04/03 06:34:57;;;;;;;;;;;;;;;8.93;69.65;97030.23;1748952;81;21188;-65
2021/04/03 06:37:33;;;;;;;4.50;2.27;;;;;;;8.92;68.50;97022.13;1746651;81;20619;-63
2021/04/03 06:40:12;;;;;;;3.35;2.22;;;;;;;8.91;69.15;97023.08;1746443;81;21092;-65
2021/04/03 06:42:57;;;;;;;2.62;2.05;;;;;;;8.93;68.41;97020.35;1746497;82;21552;-62
2021/04/03 06:45:32;;;;;;;3.47;2.40;;;;;;;8.84;67.64;97021.27;1746661;81;21136;-65
2021/04/03 06:48:09;;;;;;;4.25;2.25;;;;;;;8.82;67.28;97020.14;1746634;82;21547;-65
2021/04/03 06:50:48;;;;;;;4.08;2.27;;;;;;;8.91;67.69;97022.30;1746786;81;21257;-63
2021/04/03 06:53:19;;;;;;;4.25;2.67;;;;;;;8.97;67.76;97024.25;1746483;82;21127;-63
2021/04/03 06:55:50;;;;;;;4.03;2.40;;;;;;;9.15;67.87;97024.15;1746574;82;21768;-66
2021/04/03 06:58:19;;;;;;;5.90;1.82;;;;;;;9.23;66.05;97019.81;1746366;82;21131;-65
2021/04/03 07:00:51;;;;;;;4.33;2.92;;;;;;;9.23;64.86;97021.11;1746399;81;21132;-64
2021/04/03 07:03:23;;;;;;;6.33;2.58;;;;;;;9.38;65.25;97025.20;1746623;82;21127;-65
2021/04/03 07:05:52;;;;;;;3.25;2.42;;;;;;;9.53;65.59;97038.68;1746423;82;21175;-65
2021/04/03 07:08:25;;;;;;;3.77;2.62;;;;;;;9.66;65.45;97036.94;1746612;81;21096;-63
2021/04/03 07:10:56;;;;;;;4.97;2.65;;;;;;;9.81;65.20;97030.15;1746688;82;21350;-63
2021/04/03 07:13:25;;;;;;;3.37;2.27;;;;;;;9.99;65.43;97026.95;1746571;81;21140;-65
2021/04/03 07:15:56;;;;;;;3.45;1.92;;;;;;;10.13;63.49;97032.44;1746465;81;21575;-65
2021/04/03 07:18:27;;;;;;;4.25;2.67;;;;;;;10.26;63.43;97034.10;1746418;81;21538;-64
2021/04/03 07:20:56;;;;;;;3.62;2.65;;;;;;;10.26;61.30;97043.18;1746462;81;21135;-65
2021/04/03 07:23:29;;;;;;;4.25;2.60;;;;;;;10.28;61.37;97041.22;1746648;82;21143;-65
2021/04/03 07:26:20;;;;;;;5.12;2.47;;;;;;;10.43;62.05;97033.91;1746499;81;21123;-65
2021/04/03 07:28:47;;;;;;;3.83;2.67;;;;;;;10.38;60.15;97040.09;1719669;83;22191;-65
2021/04/03 07:31:46;;;;;;;2.27;2.08;;;;;;;10.28;60.93;97039.44;1719653;83;21176;-64
2021/04/03 07:34:13;;;;;;;4.83;2.52;;;;;;;10.39;61.52;97055.16;1719858;83;21238;-65
2021/04/03 07:36:42;;;;;;;5.33;2.27;;;;;;;10.29;59.79;97059.23;1719678;83;21179;-64
2021/04/03 07:39:56;;;;;;;4.92;2.47;;;;;;;10.33;58.60;97061.02;1719782;83;21227;-64
2021/04/03 07:42:38;;;;;;;4.03;2.05;;;;;;;10.27;58.21;97059.08;1741153;82;21193;-64
2021/04/03 07:48:50;;;;;;;4.78;2.50;;;;;;;10.36;58.16;97067.17;1823931;77;22690;-64
2021/04/03 07:51:26;;;;;;;5.00;2.87;;;;;;;10.09;58.95;97064.38;1827790;78;21696;-64
2021/04/03 07:53:56;;;;;;;5.37;2.33;;;;;;;9.93;60.14;97047.50;1827793;78;21143;-64
2021/04/03 07:56:46;;;;;;;7.60;2.20;;;;;;;9.82;60.18;97055.11;1827771;78;21321;-64
2021/04/03 07:59:16;;;;;;;3.25;2.00;;;;;;;9.99;60.65;97052.88;1827993;78;21647;-64
2021/04/03 08:01:46;;;;;;;3.12;1.98;;;;;;;10.15;60.57;97068.16;1826687;78;22109;-65
2021/04/03 08:04:14;;;;;;;4.37;2.05;;;;;;;10.26;60.96;97072.54;1827767;78;21317;-64
2021/04/03 08:06:44;;;;;;;5.87;2.35;;;;;;;10.35;59.95;97074.14;1827464;78;21144;-64
2021/04/03 08:09:38;;;;;;;5.67;2.37;;;;;;;10.48;60.58;97079.66;1827666;78;21289;-64
2021/04/03 08:12:10;;;;;;;5.53;2.83;;;;;;;10.60;59.90;97088.41;1827591;78;21143;-65
2021/04/03 08:14:42;;;;;;;4.05;2.20;;;;;;;10.74;60.14;97089.03;1827713;78;21178;-64
2021/04/03 08:17:20;;;;;;;5.35;2.72;;;;;;;10.83;59.63;97078.48;1827737;78;21525;-64
2021/04/03 08:19:48;;;;;;;8.58;3.05;;;;;;;10.88;57.40;97076.69;1827461;78;21178;-64
2021/04/03 08:22:17;;;;;;;4.45;2.95;;;;;;;10.91;57.89;97075.86;1827664;78;21147;-64
2021/04/03 08:24:57;;;;;;;2.65;2.12;;;;;;;11.06;57.88;97086.38;1827476;78;21576;-64
2021/04/03 08:27:33;;;;;;;2.95;1.47;;;;;;;11.04;56.53;97094.02;1827549;78;21628;-64
2021/04/03 08:30:23;;;;;;;2.75;1.45;;;;;;;11.12;56.98;97100.50;1827767;78;21686;-65
2021/04/03 08:33:12;;;;;;;3.15;1.40;;;;;;;11.24;57.87;97109.08;1671059;86;21150;-68
2021/04/03 08:35:45;;;;;;;1.50;0.98;;;;;;;11.27;56.25;97107.44;1671050;86;21201;-64
2021/04/03 08:38:20;;;;;;;1.42;0.75;;;;;;;11.31;56.39;97114.41;1671016;86;21193;-64
2021/04/03 08:40:51;;;;;;;3.00;1.25;;;;;;;11.29;56.77;97109.84;1671062;86;21242;-64
2021/04/03 08:43:22;;;;;;;1.87;1.17;;;;;;;11.25;56.69;97110.67;1670937;86;21185;-63
2021/04/03 08:45:52;;;;;;;1.42;0.75;;;;;;;11.19;55.93;97116.55;1670951;86;21622;-64
2021/04/03 08:48:20;;;;;;;1.90;1.02;;;;;;;11.15;56.03;97115.75;1671349;86;21260;-64
2021/04/03 08:50:49;;;;;;;1.60;1.05;;;;;;;11.16;56.69;97112.18;1671063;86;21597;-64
2021/04/03 08:53:17;;;;;;;1.55;0.57;;;;;;;11.14;53.89;97111.03;1670985;86;21158;-64
2021/04/03 08:55:46;;;;;;;1.45;0.90;;;;;;;11.11;51.86;97113.98;1671033;86;21162;-64
2021/04/03 08:58:14;;;;;;;0.70;0.40;;;;;;;11.07;51.44;97115.77;1670744;86;21181;-63
2021/04/03 09:00:44;;;;;;;4.92;0.60;;;;;;;11.04;52.63;97114.80;1670732;86;21181;-63
2021/04/03 09:03:13;;;;;;;1.52;0.88;;;;;;;11.02;52.59;97108.47;1670527;86;21638;-64
2021/04/03 09:06:09;;;;;;;0.93;0.80;;;;;;;11.01;50.23;97112.03;1670704;86;21256;-64
2021/04/03 09:08:37;;;;;;;0.80;0.62;;;;;;;11.04;49.59;97105.72;1717394;83;21162;-64
2021/04/03 09:11:06;;;;;;;0.85;0.60;;;;;;;11.11;50.58;97122.25;1717550;83;21175;-64
2021/04/03 09:13:46;;;;;;;0.60;0.40;;;;;;;11.09;46.78;97121.11;1717344;83;21143;-64
2021/04/03 09:16:15;;;;;;;1.02;0.65;;;;;;;11.08;49.44;97140.30;1717264;83;21203;-64
2021/04/03 09:18:46;;;;;;;1.20;0.50;;;;;;;10.97;48.61;97145.84;1717607;83;21167;-64
2021/04/03 09:21:22;;;;;;;0.82;0.53;;;;;;;10.89;49.21;97145.33;1717389;83;21182;-63
2021/04/03 09:23:52;;;;;;;0.88;0.53;;;;;;;10.86;51.05;97144.85;1717469;83;21179;-64
2021/04/03 09:26:35;;;;;;;0.50;0.30;;;;;;;10.79;49.82;97147.30;1717178;83;21635;-62
2021/04/03 09:29:11;;;;;;;0.23;0.23;;;;;;;10.70;48.83;97144.38;1717350;83;21162;-65
2021/04/03 09:31:43;;;;;;;0.80;0.60;;;;;;;10.64;48.41;97145.53;1717324;83;21572;-64
2021/04/03 09:34:17;;;;;;;0.88;0.50;;;;;;;10.58;49.95;97157.87;1717036;83;21580;-64
2021/04/03 09:36:51;;;;;;;1.12;0.65;;;;;;;10.46;51.91;97166.47;1717511;83;21167;-63
2021/04/03 09:39:20;;;;;;;1.52;0.80;;;;;;;10.29;51.68;97181.68;1717362;83;21143;-64
2021/04/03 09:41:54;;;;;;;1.20;0.75;;;;;;;10.15;52.89;97183.61;1717232;83;21612;-64
2021/04/03 09:44:22;;;;;;;0.55;0.35;;;;;;;9.99;52.29;97190.34;1717273;83;21611;-64
2021/04/03 09:46:51;;;;;;;0.53;0.47;;;;;;;9.86;52.96;97192.56;1717480;83;21239;-64
2021/04/03 09:49:20;;;;;;;1.27;0.72;;;;;;;9.75;53.02;97179.88;1717627;83;21595;-64
2021/04/03 09:51:48;;;;;;;1.15;0.60;;;;;;;9.69;53.09;97181.78;1717295;83;21171;-64
2021/04/03 09:54:16;;;;;;;0.40;0.40;;;;;;;9.71;52.72;97187.64;1717304;83;21592;-64
2021/04/03 09:56:43;;;;;;;0.80;0.50;;;;;;;9.70;51.88;97190.38;1717163;83;21202;-64
2021/04/03 09:59:12;;;;;;;0.60;0.60;;;;;;;9.70;51.02;97176.13;1717272;83;21131;-64
2021/04/03 10:01:40;;;;;;;1.02;0.55;;;;;;;9.77;51.79;97174.05;1717382;83;21626;-64
2021/04/03 10:04:08;;;;;;;0.57;0.40;;;;;;;9.90;51.21;97183.98;1717314;83;21171;-65
2021/04/03 10:06:36;;;;;;;0.98;0.60;;;;;;;10.00;50.25;97187.24;1720946;81;21608;-64
2021/04/03 10:09:05;;;;;;;1.10;0.75;;;;;;;10.07;49.52;97181.77;1746842;82;21155;-64
2021/04/03 10:11:33;;;;;;;1.25;0.70;;;;;;;10.14;47.67;97181.95;1747064;82;21175;-64
2021/04/03 10:14:02;;;;;;;1.25;0.55;;;;;;;10.28;48.53;97178.75;1746916;82;21296;-65
2021/04/03 10:16:30;;;;;;;0.80;0.60;;;;;;;10.42;49.11;97187.23;1747187;81;21163;-64
2021/04/03 10:18:58;;;;;;;0.75;0.50;;;;;;;10.53;46.93;97189.50;1747025;82;21132;-63
2021/04/03 10:21:26;;;;;;;0.47;0.40;;;;;;;10.65;48.11;97188.22;1747125;82;21179;-64
2021/04/03 10:23:54;;;;;;;0.72;0.53;;;;;;;10.77;47.73;97192.60;1747081;81;21235;-65
2021/04/03 10:26:22;;;;;;;0.70;0.50;;;;;;;10.82;47.56;97196.80;1746946;81;21153;-64
2021/04/03 10:28:51;;;;;;;0.57;0.57;;;;;;;10.82;48.19;97197.62;1746914;81;21265;-65
2021/04/03 10:31:19;;;;;;;1.47;0.72;;;;;;;10.73;46.59;97194.72;1746893;82;21159;-64
2021/04/03 10:33:47;;;;;;;0.55;0.40;;;;;;;10.78;46.13;97194.20;1746962;81;21151;-65
2021/04/03 10:36:16;;;;;;;0.62;0.53;;;;;;;10.81;47.57;97199.09;1746901;82;21145;-64
2021/04/03 10:38:45;;;;;;;0.70;0.35;;;;;;;10.79;47.64;97200.55;1747063;82;21207;-65
2021/04/03 10:41:15;;;;;;;1.22;0.75;;;;;;;10.76;47.79;97208.67;1746822;82;21159;-64
2021/04/03 10:43:44;;;;;;;0.90;0.37;;;;;;;10.61;46.21;97215.96;1747019;82;21707;-68
2021/04/03 10:46:12;;;;;;;0.45;0.35;;;;;;;10.65;47.76;97208.98;1747070;82;21159;-64
2021/04/03 10:48:40;;;;;;;1.40;0.60;;;;;;;10.65;47.47;97214.18;1747202;81;21179;-64
2021/04/03 10:51:08;;;;;;;0.50;0.40;;;;;;;10.61;47.79;97214.17;1746930;81;21607;-64
2021/04/03 10:53:37;;;;;;;1.47;0.50;;;;;;;10.61;47.11;97209.47;1746940;82;21188;-64
2021/04/03 10:56:06;;;;;;;1.05;0.57;;;;;;;10.66;46.41;97220.19;1747057;82;21203;-65
2021/04/03 10:58:34;;;;;;;0.57;0.40;;;;;;;10.68;47.44;97210.44;1747001;82;21543;-64
2021/04/03 11:01:03;;;;;;;1.12;0.40;;;;;;;10.67;46.16;97207.03;1746988;82;21164;-65
2021/04/03 11:03:31;;;;;;;0.95;0.68;;;;;;;10.78;46.86;97208.48;1746792;81;21225;-64
2021/04/03 11:05:59;;;;;;;0.70;0.60;;;;;;;10.87;45.44;97202.33;1746962;82;21143;-66
2021/04/03 11:08:29;;;;;;;0.78;0.60;;;;;;;10.94;45.94;97202.81;1744439;81;21718;-64
2021/04/03 11:11:08;;;;;;;0.65;0.45;;;;;;;10.89;47.20;97210.27;1740905;81;21695;-64
2021/04/03 11:13:38;;;;;;;1.02;0.60;;;;;;;11.02;45.99;97209.78;1743784;82;21302;-64
2021/04/03 11:16:07;;;;;;;0.85;0.60;;;;;;;11.10;46.59;97209.78;1743745;82;21208;-65
2021/04/03 11:18:35;;;;;;;0.98;0.62;;;;;;;11.16;47.24;97211.74;1743767;81;21593;-65
2021/04/03 11:21:04;;;;;;;0.53;0.40;;;;;;;11.18;46.75;97217.57;1743699;82;21207;-65
2021/04/03 11:23:32;;;;;;;1.82;0.70;;;;;;;11.19;46.59;97218.39;1743959;82;21159;-65
2021/04/03 11:26:00;;;;;;;0.95;0.82;;;;;;;11.19;46.78;97227.48;1743808;82;21188;-64
2021/04/03 11:28:28;;;;;;;1.72;0.70;;;;;;;11.14;46.37;97223.26;1743668;81;21596;-64
2021/04/03 11:30:57;;;;;;;1.02;0.70;;;;;;;11.26;47.71;97229.74;1743818;82;21165;-64
2021/04/03 11:33:26;;;;;;;2.10;0.45;;;;;;;11.23;47.41;97230.08;1743737;81;21242;-64
2021/04/03 11:35:54;;;;;;;1.17;0.65;;;;;;;11.20;47.20;97223.92;1744025;81;21306;-65
2021/04/03 11:38:22;;;;;;;1.77;0.78;;;;;;;11.19;47.10;97223.58;1743851;81;21691;-63
2021/04/03 11:40:51;;;;;;;1.15;0.70;;;;;;;11.19;46.95;97232.68;1743857;81;21165;-65
2021/04/03 11:43:20;;;;;;;1.90;0.62;;;;;;;11.18;47.35;97240.14;1743883;82;21750;-64
2021/04/03 11:45:48;;;;;;;1.92;0.68;;;;;;;11.13;46.47;97235.44;1743736;82;21129;-64
2021/04/03 11:48:16;;;;;;;0.75;0.60;;;;;;;11.04;47.60;97235.62;1744060;82;21180;-65
2021/04/03 11:50:46;;;;;;;1.25;0.78;;;;;;;10.88;47.54;97243.73;1743713;81;21209;-65
2021/04/03 11:53:15;;;;;;;0.95;0.57;;;;;;;10.69;47.27;97231.55;1743684;81;21160;-63
2021/04/03 11:55:43;;;;;;;1.07;0.70;;;;;;;10.57;48.07;97233.64;1743754;82;21168;-66
2021/04/03 11:58:14;;;;;;;0.90;0.60;;;;;;;10.45;47.30;97236.22;1744217;81;21132;-68
2021/04/03 12:00:42;;;;;;;1.32;0.60;;;;;;;10.38;48.23;97241.72;1743727;81;21182;-65
2021/04/03 12:03:11;;;;;;;0.88;0.60;;;;;;;10.30;47.62;97238.62;1743859;81;21306;-65
2021/04/03 12:05:51;;;;;;;1.00;0.60;;;;;;;10.27;48.42;97242.80;1643613;86;21177;-68